»·PEaware :: SWA2296 KPHX-KSAN

SWA2296 :: KPHX-KSAN

FLIGHT INFORMATION

Flight Status: Arrived
Operator:
Southwest Airlines
More flights by this operator :: More flights under this callsign
Pilot: Ben F. (2808)
Aircraft: BOEING 737-300
(B733)
More flights by this aircraft type
Origin: KPHX Phoenix Sky Harbor Intl
United States
Destination: KSAN San Diego Intl-Lindbergh
United States
More flights between these airports :: More routes between these airports
Route: +FYRBD1 MOHAK J2 HOGGZ LUCKI1
File this flight plan on PilotEdge
Remarks:
Altitude:
(Current/Filed)
32,000ft
Speed:
(Current/Filed)
444kts
Departed: 26-Oct-18 06:08 PM
Arrived: 26-Oct-18 06:53 PM
Distance/Time
Traveled:
264nm/0:45
Distance/Time
To Go:
Arrived

Flight Plot

Page will automatically refresh every two minutes.

Flight plan parsing failed; only flown route is shown


Map Options




Map Legend


Flown Route
Filed Route
Departure Airport
Arrival Airport
Navaid (VOR, NDB)
Fix

Horizontal Profiles

Position Reports

Time Latitude Longitude Heading Altitude Ground
Speed
26-Oct-18 17:32 33.434068 -111.996235 285 1141ft 0kts
26-Oct-18 17:33 33.434068 -111.996235 285 1141ft 0kts
26-Oct-18 17:34 33.434068 -111.996235 285 1141ft 0kts
26-Oct-18 17:35 33.434068 -111.996235 285 1141ft 0kts
26-Oct-18 17:36 33.434068 -111.996235 285 1141ft 0kts
26-Oct-18 17:37 33.434068 -111.996235 285 1141ft 0kts
26-Oct-18 17:38 33.434068 -111.996235 285 1141ft 0kts
26-Oct-18 17:39 33.434068 -111.996235 285 1141ft 0kts
26-Oct-18 17:40 33.434068 -111.996235 285 1141ft 0kts
26-Oct-18 17:41 33.434068 -111.996235 285 1141ft 0kts
26-Oct-18 17:42 33.434068 -111.996235 285 1141ft 0kts
26-Oct-18 17:43 33.434068 -111.996235 285 1141ft 0kts
26-Oct-18 17:44 33.434068 -111.996235 285 1141ft 0kts
26-Oct-18 17:45 33.434068 -111.996235 285 1141ft 0kts
26-Oct-18 17:46 33.434068 -111.996235 285 1141ft 0kts
26-Oct-18 17:47 33.434068 -111.996235 285 1141ft 0kts
26-Oct-18 17:48 33.434068 -111.996235 285 1141ft 0kts
26-Oct-18 17:49 33.434068 -111.996235 285 1141ft 0kts
26-Oct-18 17:50 33.434068 -111.996235 285 1141ft 0kts
26-Oct-18 17:51 33.434068 -111.996235 285 1141ft 0kts
26-Oct-18 17:52 33.434068 -111.996235 285 1141ft 0kts
26-Oct-18 17:53 33.434068 -111.996235 285 1141ft 0kts
26-Oct-18 17:54 33.434068 -111.996235 285 1141ft 0kts
26-Oct-18 17:55 33.434068 -111.996235 285 1141ft 0kts
26-Oct-18 17:56 33.434048 -111.995846 230 1141ft 2kts
26-Oct-18 17:57 33.434266 -111.995753 178 1141ft 0kts
26-Oct-18 17:58 33.434266 -111.995753 178 1141ft 0kts
26-Oct-18 17:59 33.434266 -111.995753 178 1141ft 0kts
26-Oct-18 18:00 33.434149 -111.995750 178 1141ft 2kts
26-Oct-18 18:01 33.433554 -111.995751 182 1141ft 0kts
26-Oct-18 18:02 33.433551 -111.995751 182 1141ft 0kts
26-Oct-18 18:03 33.433551 -111.995751 182 1141ft 0kts
26-Oct-18 18:04 33.433551 -111.995751 182 1141ft 0kts
26-Oct-18 18:05 33.433551 -111.995751 182 1141ft 0kts
26-Oct-18 18:06 33.433551 -111.995751 182 1141ft 0kts
26-Oct-18 18:07 33.432828 -111.994948 93 1141ft 12kts
26-Oct-18 18:08 33.431982 -111.993452 181 1141ft 0kts
26-Oct-18 18:09 33.431213 -111.993714 227 1141ft 12kts
26-Oct-18 18:10 33.430932 -112.027953 267 1490ft 173kts
26-Oct-18 18:11 33.421596 -112.094879 250 2832ft 249kts
26-Oct-18 18:12 33.390475 -112.171729 215 5572ft 273kts
26-Oct-18 18:13 33.313271 -112.162841 164 8235ft 301kts
26-Oct-18 18:14 33.251481 -112.209951 251 10718ft 306kts
26-Oct-18 18:15 33.220000 -112.311011 251 12658ft 346kts
26-Oct-18 18:16 33.187932 -112.425572 259 14511ft 378kts
26-Oct-18 18:17 33.163628 -112.527501 255 16027ft 388kts
26-Oct-18 18:18 33.125974 -112.672222 255 18311ft 403kts
26-Oct-18 18:19 33.098000 -112.778870 255 20164ft 411kts
26-Oct-18 18:20 33.056914 -112.934688 254 21909ft 438kts
26-Oct-18 18:21 33.025958 -113.051208 254 23468ft 446kts
26-Oct-18 18:22 32.988093 -113.193091 254 25083ft 457kts
26-Oct-18 18:23 32.949195 -113.338089 255 26843ft 460kts
26-Oct-18 18:24 32.910382 -113.481944 255 28793ft 456kts
26-Oct-18 18:25 32.872272 -113.621324 255 30442ft 453kts
26-Oct-18 18:26 32.834007 -113.761616 254 31852ft 452kts
26-Oct-18 18:27 32.795021 -113.903712 254 31973ft 451kts
26-Oct-18 18:28 32.774162 -114.047221 274 31961ft 446kts
26-Oct-18 18:29 32.779846 -114.194025 276 31969ft 445kts
26-Oct-18 18:30 32.785763 -114.340952 276 31967ft 445kts
26-Oct-18 18:31 32.813140 -114.481393 291 31962ft 439kts
26-Oct-18 18:32 32.851457 -114.619946 291 31969ft 441kts
26-Oct-18 18:33 32.880450 -114.758456 270 31967ft 456kts
26-Oct-18 18:34 32.875292 -114.909492 271 31987ft 455kts
26-Oct-18 18:35 32.871924 -115.059491 271 31990ft 457kts
26-Oct-18 18:36 32.868344 -115.210753 270 31985ft 458kts
26-Oct-18 18:37 32.863310 -115.358565 264 31786ft 449kts
26-Oct-18 18:38 32.841335 -115.506317 261 28401ft 455kts
26-Oct-18 18:39 32.817746 -115.650185 260 25602ft 448kts
26-Oct-18 18:40 32.794537 -115.791937 260 22249ft 425kts
26-Oct-18 18:41 32.779225 -115.925835 266 19990ft 405kts
26-Oct-18 18:42 32.769614 -116.056448 266 17800ft 392kts
26-Oct-18 18:43 32.760047 -116.183251 266 15620ft 380kts
26-Oct-18 18:44 32.750608 -116.305570 266 13705ft 358kts
26-Oct-18 18:45 32.741721 -116.418619 266 12068ft 337kts
26-Oct-18 18:46 32.732959 -116.525035 265 10752ft 311kts
26-Oct-18 18:47 32.723311 -116.624576 265 9378ft 301kts
26-Oct-18 18:48 32.715457 -116.716723 265 7694ft 290kts
26-Oct-18 18:49 32.708159 -116.809158 265 6128ft 265kts
26-Oct-18 18:50 32.685569 -116.888775 251 5206ft 248kts
26-Oct-18 18:51 32.678225 -116.962143 287 4271ft 226kts
26-Oct-18 18:52 32.695874 -117.034694 286 2829ft 230kts
26-Oct-18 18:53 32.712093 -117.101312 286 1553ft 195kts
26-Oct-18 18:54 32.726147 -117.158913 287 451ft 165kts
26-Oct-18 18:55 32.735298 -117.197357 266 24ft 20kts
26-Oct-18 18:56 32.734535 -117.197953 109 24ft 10kts
26-Oct-18 18:57 32.733818 -117.194976 107 24ft 0kts
26-Oct-18 18:58 32.733814 -117.194962 107 24ft 0kts
26-Oct-18 18:59 32.733814 -117.194962 107 24ft 0kts
26-Oct-18 19:00 32.733814 -117.194962 107 24ft 0kts
26-Oct-18 19:01 32.733106 -117.194750 184 24ft 9kts
26-Oct-18 19:02 32.732568 -117.195485 309 24ft 1kts

Navigation Log

Ident Type
Flight plan parsing failed, navigation log unavailable